Time;durP1;ratioP1;P1;durP2;ratioP2;P2;SDS_P1;SDS_P2;PMS_P1;PMS_P2;Temp;Humidity;BMP_temperature;BMP_pressure;BME280_temperature;BME280_humidity;BME280_pressure;Samples;Min_cycle;Max_cycle;Signal;HPM_P1;HPM_P2
2022/03/09 00:01:17;;;;;;;14.77;4.97;;;;;;;-2.66;38.16;99645.09;5029059;28;20049;-72
2022/03/09 00:03:43;;;;;;;12.50;4.70;;;;;;;-2.57;38.26;99654.66;5036335;28;20075;-74
2022/03/09 00:06:09;;;;;;;13.33;5.13;;;;;;;-2.51;38.02;99663.75;5014982;28;20516;-73
2022/03/09 00:08:36;;;;;;;11.37;5.03;;;;;;;-2.60;37.93;99657.69;5043071;28;20128;-74
2022/03/09 00:11:02;;;;;;;15.43;5.50;;;;;;;-2.60;37.90;99663.06;5028484;28;20073;-73
2022/03/09 00:13:28;;;;;;;11.57;4.77;;;;;;;-2.49;37.61;99664.41;5028899;28;20103;-74
2022/03/09 00:15:54;;;;;;;14.27;5.20;;;;;;;-2.58;37.48;99662.88;5038673;28;20490;-74
2022/03/09 00:18:21;;;;;;;12.80;5.13;;;;;;;-2.66;37.82;99653.13;5031057;28;20083;-74
2022/03/09 00:20:47;;;;;;;12.18;4.47;;;;;;;-2.65;37.46;99670.84;5022657;28;20107;-73
2022/03/09 00:23:13;;;;;;;13.33;4.27;;;;;;;-2.66;37.40;99666.50;5032969;28;20049;-73
2022/03/09 00:25:40;;;;;;;14.17;4.47;;;;;;;-2.72;37.74;99660.06;5033041;28;20053;-74
2022/03/09 00:28:06;;;;;;;13.10;4.03;;;;;;;-2.74;37.74;99662.09;5032144;28;20049;-74
2022/03/09 00:30:33;;;;;;;12.15;3.88;;;;;;;-2.69;37.60;99666.06;5023908;28;20046;-73
2022/03/09 00:32:59;;;;;;;12.17;3.73;;;;;;;-2.72;37.49;99669.97;5039311;28;20072;-73
2022/03/09 00:35:26;;;;;;;13.63;4.37;;;;;;;-2.78;37.98;99671.53;5030371;28;20058;-72
2022/03/09 00:37:53;;;;;;;14.45;4.32;;;;;;;-2.82;38.16;99672.91;5030044;28;20072;-72
2022/03/09 00:40:19;;;;;;;12.65;4.95;;;;;;;-2.86;38.16;99675.19;5030076;28;20072;-74
2022/03/09 00:42:45;;;;;;;13.77;4.40;;;;;;;-2.80;38.11;99676.25;5014751;28;20115;-73
2022/03/09 00:45:11;;;;;;;13.17;4.77;;;;;;;-2.80;38.04;99676.25;5029841;28;20053;-73
2022/03/09 00:47:39;;;;;;;11.02;4.57;;;;;;;-2.78;37.88;99684.09;5031736;28;20096;-74
2022/03/09 00:50:06;;;;;;;15.70;4.37;;;;;;;-2.88;37.72;99679.91;5034478;28;20053;-74
2022/03/09 00:52:33;;;;;;;13.27;4.13;;;;;;;-2.87;37.74;99684.22;5017139;28;20080;-74
2022/03/09 00:54:59;;;;;;;12.77;4.70;;;;;;;-2.85;37.77;99682.19;5036290;28;20079;-73
2022/03/09 00:57:26;;;;;;;11.03;4.17;;;;;;;-2.93;37.67;99682.28;5034016;28;20070;-74
2022/03/09 00:59:52;;;;;;;13.00;4.28;;;;;;;-2.97;37.63;99683.69;5018029;28;20468;-75
2022/03/09 01:02:19;;;;;;;12.93;4.30;;;;;;;-3.00;37.56;99682.22;5031586;28;20144;-75
2022/03/09 01:04:45;;;;;;;12.07;4.90;;;;;;;-3.03;37.32;99679.09;5026038;28;20150;-75
2022/03/09 01:07:11;;;;;;;11.17;3.97;;;;;;;-3.06;37.55;99680.31;5027804;28;20513;-73
2022/03/09 01:09:38;;;;;;;12.33;4.63;;;;;;;-3.13;37.70;99674.03;5025623;28;20513;-73
2022/03/09 01:12:05;;;;;;;11.90;4.78;;;;;;;-3.05;37.56;99681.97;5028337;28;20152;-73
2022/03/09 01:14:31;;;;;;;10.23;4.03;;;;;;;-3.19;37.41;99669.44;5029110;28;20099;-73
2022/03/09 01:16:57;;;;;;;11.90;4.47;;;;;;;-3.17;37.31;99680.78;5014663;28;20045;-74
2022/03/09 01:19:23;;;;;;;10.87;4.43;;;;;;;-3.10;37.21;99688.88;5029236;28;20065;-74
2022/03/09 01:21:50;;;;;;;10.77;4.67;;;;;;;-3.05;36.98;99689.13;5034198;28;20508;-74
2022/03/09 01:24:16;;;;;;;13.33;4.77;;;;;;;-3.15;37.32;99695.63;5014188;28;20438;-73
2022/03/09 01:26:43;;;;;;;14.90;4.70;;;;;;;-3.15;36.83;99698.31;5029599;28;20061;-73
2022/03/09 01:29:10;;;;;;;13.00;4.93;;;;;;;-3.23;36.98;99678.88;5022348;28;20080;-74
2022/03/09 01:31:37;;;;;;;11.90;4.72;;;;;;;-3.20;36.89;99700.72;5014274;28;20578;-73
2022/03/09 01:34:04;;;;;;;12.20;4.38;;;;;;;-3.29;37.05;99701.84;5016724;28;20111;-75
2022/03/09 01:36:30;;;;;;;13.47;4.93;;;;;;;-3.34;37.20;99702.38;5017706;28;20095;-76
2022/03/09 01:38:56;;;;;;;16.83;5.40;;;;;;;-3.32;36.94;99697.69;5034324;28;20049;-74
2022/03/09 01:41:22;;;;;;;13.80;5.80;;;;;;;-3.33;36.95;99697.88;5032812;28;20395;-75
2022/03/09 01:44:05;;;;;;;11.13;4.87;;;;;;;-3.35;36.91;99697.25;5026962;28;20061;-74
2022/03/09 01:46:31;;;;;;;12.97;5.30;;;;;;;-3.33;36.98;99706.72;5029757;28;20140;-75
2022/03/09 01:48:57;;;;;;;12.93;5.60;;;;;;;-3.35;36.88;99719.44;5019057;28;20238;-74
2022/03/09 01:51:23;;;;;;;11.43;5.10;;;;;;;-3.43;36.84;99716.88;5022687;28;20094;-74
2022/03/09 01:53:49;;;;;;;12.67;5.40;;;;;;;-3.49;37.06;99720.28;5027166;28;20045;-75
2022/03/09 01:56:16;;;;;;;14.70;5.27;;;;;;;-3.50;36.96;99727.50;5021213;28;20053;-75
2022/03/09 01:58:43;;;;;;;13.47;5.47;;;;;;;-3.50;36.86;99724.81;5025608;28;20049;-75
2022/03/09 02:01:10;;;;;;;12.73;5.47;;;;;;;-3.52;37.15;99728.69;4998194;28;20041;-75
2022/03/09 02:03:36;;;;;;;14.43;5.45;;;;;;;-3.48;36.91;99730.81;5025791;28;20058;-75
2022/03/09 02:06:03;;;;;;;15.83;5.83;;;;;;;-3.57;36.96;99730.06;5020956;28;20081;-75
2022/03/09 02:11:14;;;;;;;13.03;5.23;;;;;;;-3.68;37.36;99725.16;5016735;28;20041;-75
2022/03/09 02:13:40;;;;;;;17.87;5.97;;;;;;;-3.70;37.58;99730.69;5030550;28;20139;-75
2022/03/09 02:16:07;;;;;;;16.60;5.50;;;;;;;-3.79;37.43;99738.97;5023606;28;20156;-75
2022/03/09 02:18:34;;;;;;;18.63;5.63;;;;;;;-3.80;37.72;99745.31;5004921;28;20052;-74
2022/03/09 02:21:03;;;;;;;13.43;5.20;;;;;;;-3.79;37.33;99747.81;5025598;28;20311;-75
2022/03/09 02:23:30;;;;;;;12.23;4.80;;;;;;;-3.91;37.33;99760.78;5020495;28;20358;-75
2022/03/09 02:25:56;;;;;;;10.75;4.38;;;;;;;-3.94;37.61;99755.00;5006759;28;20399;-74
2022/03/09 02:28:22;;;;;;;10.00;4.03;;;;;;;-3.96;37.47;99752.47;5009288;28;20049;-75
2022/03/09 02:30:54;;;;;;;13.87;4.20;;;;;;;-4.11;37.17;99744.44;5031795;28;20061;-75
2022/03/09 02:33:21;;;;;;;10.83;4.03;;;;;;;-4.11;37.28;99757.81;5023604;28;20564;-74
2022/03/09 02:35:47;;;;;;;15.17;5.00;;;;;;;-4.09;37.18;99760.28;5025598;28;20091;-75
2022/03/09 02:38:13;;;;;;;11.63;4.80;;;;;;;-4.56;37.16;99701.56;5021462;28;20045;-74
2022/03/09 02:40:40;;;;;;;12.30;3.80;;;;;;;-4.33;37.33;99740.78;5022667;28;20049;-76
2022/03/09 02:43:06;;;;;;;14.30;3.97;;;;;;;-4.23;37.20;99762.72;5032710;28;20045;-76
2022/03/09 02:45:32;;;;;;;11.07;4.60;;;;;;;-4.22;37.38;99758.22;5023915;28;20411;-75
2022/03/09 02:47:58;;;;;;;9.90;3.90;;;;;;;-4.17;37.04;99763.84;5018134;28;20053;-75
2022/03/09 02:50:24;;;;;;;11.97;3.90;;;;;;;-4.28;37.13;99770.44;5003957;28;20046;-74
2022/03/09 02:52:51;;;;;;;11.87;4.20;;;;;;;-4.29;37.21;99766.09;5013180;28;20069;-76
2022/03/09 02:55:17;;;;;;;11.07;4.27;;;;;;;-4.30;36.84;99773.28;5027411;28;20041;-75
2022/03/09 02:57:44;;;;;;;11.83;4.37;;;;;;;-4.34;36.89;99773.84;5024427;28;20060;-74
2022/03/09 03:00:11;;;;;;;11.73;4.25;;;;;;;-4.46;37.07;99768.06;5019187;28;20179;-74
2022/03/09 03:02:39;;;;;;;14.45;4.78;;;;;;;-4.45;37.51;99772.38;5020417;28;20478;-74
2022/03/09 03:05:06;;;;;;;13.98;4.80;;;;;;;-4.61;37.49;99755.47;5026815;28;20049;-74
2022/03/09 03:07:33;;;;;;;13.82;5.35;;;;;;;-4.61;37.31;99776.81;5019827;28;20141;-75
2022/03/09 03:09:59;;;;;;;11.90;4.87;;;;;;;-4.62;37.30;99777.00;5028771;28;20049;-78
2022/03/09 03:12:26;;;;;;;14.13;5.07;;;;;;;-4.65;37.53;99777.38;5033969;28;20395;-83
2022/03/09 03:14:53;;;;;;;18.57;5.60;;;;;;;-4.67;37.11;99774.03;5029043;28;20044;-83
2022/03/09 03:17:19;;;;;;;17.42;5.68;;;;;;;-4.73;37.20;99771.06;5013731;28;20493;-83
2022/03/09 03:19:45;;;;;;;14.13;5.50;;;;;;;-4.71;37.20;99787.72;5014743;28;20172;-81
2022/03/09 03:22:11;;;;;;;14.40;5.20;;;;;;;-4.76;37.47;99784.75;5029515;28;20053;-87
2022/03/09 03:24:38;;;;;;;18.67;5.70;;;;;;;-4.73;37.20;99776.38;4995046;28;20053;-85
2022/03/09 03:27:04;;;;;;;14.63;5.43;;;;;;;-4.80;37.46;99779.94;5028460;28;20050;-86
2022/03/09 03:29:30;;;;;;;13.43;5.17;;;;;;;-4.82;37.48;99787.28;5026710;28;20128;-84
2022/03/09 03:31:57;;;;;;;15.47;5.70;;;;;;;-4.79;37.56;99785.09;5013086;28;20053;-83
2022/03/09 03:34:23;;;;;;;16.20;5.10;;;;;;;-4.85;37.51;99781.28;5007082;28;20475;-82
2022/03/09 03:36:49;;;;;;;17.80;5.37;;;;;;;-4.94;37.31;99786.84;5016421;28;20144;-82
2022/03/09 03:39:15;;;;;;;14.10;4.77;;;;;;;-5.03;37.28;99786.06;4993555;28;20050;-82
2022/03/09 03:41:42;;;;;;;16.27;5.17;;;;;;;-5.00;37.42;99794.50;5012126;28;20045;-83
2022/03/09 03:44:08;;;;;;;15.27;5.90;;;;;;;-5.06;37.81;99794.41;5004644;28;20338;-83
2022/03/09 03:46:34;;;;;;;14.90;6.10;;;;;;;-5.17;37.70;99796.44;5007202;28;20584;-83
2022/03/09 03:49:02;;;;;;;20.60;5.97;;;;;;;-5.21;37.96;99800.44;5013334;28;20046;-83
2022/03/09 03:51:28;;;;;;;14.05;5.72;;;;;;;-5.25;38.21;99800.97;5019700;28;20045;-83
2022/03/09 03:53:54;;;;;;;13.20;5.20;;;;;;;-5.27;38.15;99796.63;5034142;28;20052;-82
2022/03/09 03:56:20;;;;;;;17.83;5.60;;;;;;;-5.25;38.01;99803.63;5021759;28;20052;-83
2022/03/09 03:58:47;;;;;;;15.70;5.87;;;;;;;-5.33;38.57;99802.63;5022412;28;20108;-83
2022/03/09 04:01:13;;;;;;;13.50;5.53;;;;;;;-5.28;38.32;99808.31;5002546;28;20053;-83
2022/03/09 04:03:40;;;;;;;12.37;5.30;;;;;;;-5.27;38.13;99807.28;5004835;28;20154;-83
2022/03/09 04:06:07;;;;;;;14.50;5.10;;;;;;;-5.41;38.28;99798.16;5010612;28;20505;-83
2022/03/09 04:08:34;;;;;;;21.25;5.53;;;;;;;-5.34;38.28;99810.81;5014653;28;20037;-81
2022/03/09 04:11:00;;;;;;;19.30;5.03;;;;;;;-5.46;38.67;99797.03;5007877;28;20068;-80
2022/03/09 04:13:26;;;;;;;12.90;5.10;;;;;;;-5.35;38.82;99819.81;5020580;28;20100;-81
2022/03/09 04:15:52;;;;;;;12.77;4.67;;;;;;;-5.43;38.54;99818.00;4981988;28;20132;-80
2022/03/09 04:18:19;;;;;;;15.47;5.00;;;;;;;-5.55;38.49;99802.34;5018214;28;20076;-81
2022/03/09 04:20:45;;;;;;;26.20;5.73;;;;;;;-5.43;38.59;99818.00;5018537;28;20057;-81
2022/03/09 04:23:12;;;;;;;17.47;4.73;;;;;;;-5.57;38.93;99815.03;5010776;28;20053;-81
2022/03/09 04:25:39;;;;;;;10.88;4.47;;;;;;;-5.53;38.85;99820.00;5018889;28;20052;-81
2022/03/09 04:28:07;;;;;;;15.50;5.07;;;;;;;-5.58;38.95;99808.03;5025232;28;20049;-81
2022/03/09 04:30:33;;;;;;;15.07;4.93;;;;;;;-5.43;38.52;99839.31;5014230;28;20056;-79
2022/03/09 04:33:00;;;;;;;12.37;4.40;;;;;;;-5.51;38.60;99836.66;5018773;28;20048;-81
2022/03/09 04:35:26;;;;;;;13.03;4.80;;;;;;;-5.46;38.66;99839.66;4996603;28;20144;-81
2022/03/09 04:37:53;;;;;;;12.97;4.73;;;;;;;-5.44;38.55;99841.16;5030608;28;20067;-81
2022/03/09 04:40:20;;;;;;;15.40;4.87;;;;;;;-5.43;38.66;99840.13;5024461;28;20053;-84
2022/03/09 04:42:46;;;;;;;10.90;4.55;;;;;;;-5.42;38.59;99851.66;5023820;28;20140;-85
2022/03/09 04:45:12;;;;;;;40.57;14.87;;;;;;;-5.48;38.67;99852.31;4982900;28;20113;-79
2022/03/09 04:47:42;;;;;;;39.43;14.60;;;;;;;-5.42;38.77;99854.31;5023521;28;20041;-79
2022/03/09 04:50:09;;;;;;;28.07;11.53;;;;;;;-5.38;38.90;99865.47;5012921;28;20057;-82
2022/03/09 04:52:35;;;;;;;22.33;8.97;;;;;;;-5.35;38.83;99871.28;5015443;28;20049;-84
2022/03/09 04:55:01;;;;;;;21.13;6.93;;;;;;;-5.27;38.55;99867.78;5022001;28;20053;-83
2022/03/09 04:57:29;;;;;;;;;;;;;;;-5.27;38.61;99870.44;5010184;28;20049;-82
2022/03/09 04:59:57;;;;;;;16.10;4.50;;;;;;;-5.31;38.45;99869.13;5032748;28;19929;-82
2022/03/09 05:02:24;;;;;;;16.97;4.90;;;;;;;-5.30;38.70;99874.28;5020551;28;20301;-78
2022/03/09 05:04:50;;;;;;;15.03;4.47;;;;;;;-5.28;38.47;99882.09;5029351;28;20073;-79
2022/03/09 05:07:17;;;;;;;11.38;4.53;;;;;;;-5.20;38.48;99884.78;5027278;28;20107;-80
2022/03/09 05:09:43;;;;;;;17.07;4.73;;;;;;;-5.09;38.15;99883.56;5021465;28;20049;-80
2022/03/09 05:12:10;;;;;;;14.23;4.70;;;;;;;-5.05;38.23;99895.56;5027421;28;20474;-80
2022/03/09 05:14:36;;;;;;;16.23;4.43;;;;;;;-5.03;37.78;99898.06;5027063;28;20481;-79
2022/03/09 05:17:03;;;;;;;14.13;4.93;;;;;;;-5.01;38.15;99904.06;5033758;28;20056;-75
2022/03/09 05:19:30;;;;;;;13.03;5.27;;;;;;;-5.08;37.95;99901.25;5037947;28;20053;-76
2022/03/09 05:21:56;;;;;;;24.93;4.60;;;;;;;-5.09;38.28;99899.56;5047024;28;20057;-75
2022/03/09 05:24:22;;;;;;;20.33;4.67;;;;;;;-5.04;38.08;99902.56;5006312;28;20070;-76
2022/03/09 05:26:48;;;;;;;14.23;5.07;;;;;;;-5.04;38.20;99902.56;5030511;28;20088;-76
2022/03/09 05:29:15;;;;;;;15.67;6.07;;;;;;;-5.23;38.12;99870.94;5033462;28;20168;-76
2022/03/09 05:31:44;;;;;;;21.70;4.73;;;;;;;-5.09;37.76;99896.06;5009889;28;20050;-76
2022/03/09 05:34:11;;;;;;;16.00;5.20;;;;;;;-5.01;37.79;99898.72;5031331;28;20042;-76
2022/03/09 05:36:37;;;;;;;13.63;4.70;;;;;;;-4.92;37.66;99902.19;5029688;28;20045;-76
2022/03/09 05:39:04;;;;;;;19.30;5.67;;;;;;;-4.85;37.97;99903.16;5012784;28;20172;-77
2022/03/09 05:41:30;;;;;;;13.50;4.97;;;;;;;-4.88;37.79;99909.69;5029019;28;20045;-75
2022/03/09 05:43:57;;;;;;;15.87;5.40;;;;;;;-4.92;37.61;99907.53;5012163;28;20073;-75
2022/03/09 05:46:23;;;;;;;30.13;5.25;;;;;;;-4.88;37.65;99908.84;5039205;28;20436;-72
2022/03/09 05:48:50;;;;;;;16.20;4.83;;;;;;;-4.84;37.56;99918.16;5043566;28;20049;-71
2022/03/09 05:51:16;;;;;;;19.73;5.40;;;;;;;-4.95;37.82;99907.88;5006984;28;20041;-73
2022/03/09 05:53:42;;;;;;;18.73;6.60;;;;;;;-4.92;37.93;99923.53;5026658;28;20054;-72
2022/03/09 05:56:08;;;;;;;14.20;5.20;;;;;;;-4.91;38.12;99925.22;5022148;28;20051;-69
2022/03/09 05:58:35;;;;;;;16.03;4.83;;;;;;;-4.94;37.76;99930.88;5028757;28;20048;-73
2022/03/09 06:01:01;;;;;;;17.53;5.70;;;;;;;-4.85;37.59;99924.50;5035736;28;20048;-73
2022/03/09 06:03:27;;;;;;;19.80;6.10;;;;;;;-4.72;37.67;99932.81;5033862;28;20480;-72
2022/03/09 06:05:54;;;;;;;15.93;5.40;;;;;;;-4.82;37.85;99929.53;5028578;28;20045;-71
2022/03/09 06:08:20;;;;;;;20.63;5.75;;;;;;;-4.82;37.76;99940.19;5028780;28;20077;-73
2022/03/09 06:10:46;;;;;;;18.47;5.80;;;;;;;-4.76;37.62;99930.66;5017971;28;20041;-71
2022/03/09 06:13:13;;;;;;;22.65;6.15;;;;;;;-4.80;37.89;99916.84;5051001;28;20098;-73
2022/03/09 06:15:39;;;;;;;16.60;5.90;;;;;;;-4.62;37.98;99932.63;5023370;28;20065;-72
2022/03/09 06:18:06;;;;;;;19.20;5.47;;;;;;;-4.48;37.56;99941.75;5025231;28;20049;-73
2022/03/09 06:20:33;;;;;;;19.20;6.90;;;;;;;-4.43;37.48;99936.72;5011718;28;20046;-74
2022/03/09 06:22:59;;;;;;;19.03;5.57;;;;;;;-4.36;37.72;99930.72;5025923;28;20524;-73
2022/03/09 06:25:26;;;;;;;18.85;6.40;;;;;;;-4.27;37.54;99926.97;5018779;28;20056;-73
2022/03/09 06:27:52;;;;;;;15.50;5.93;;;;;;;-4.29;37.60;99939.69;5020758;28;20496;-72
2022/03/09 06:30:20;;;;;;;18.30;5.70;;;;;;;-4.22;37.61;99942.47;5027850;28;20064;-74
2022/03/09 06:32:46;;;;;;;;;;;;;;;-4.13;37.42;99947.59;5015933;28;20045;-74
2022/03/09 06:35:14;;;;;;;16.17;5.63;;;;;;;-4.02;37.11;99934.88;5026903;28;19924;-73
2022/03/09 06:37:41;;;;;;;16.08;5.75;;;;;;;-4.02;37.32;99938.34;5035078;28;20133;-73
2022/03/09 06:40:10;;;;;;;19.23;6.80;;;;;;;-3.85;36.87;99952.47;5028154;28;20057;-73
2022/03/09 06:42:37;;;;;;;16.63;5.37;;;;;;;-3.84;37.05;99945.25;5027192;28;20065;-74
2022/03/09 06:45:05;;;;;;;17.33;5.80;;;;;;;-3.79;36.89;99942.06;5026241;28;20057;-73
2022/03/09 06:47:35;;;;;;;23.23;6.45;;;;;;;-3.68;36.54;99960.38;5036069;28;20044;-73
2022/03/09 06:50:01;;;;;;;20.20;6.80;;;;;;;-3.62;36.78;99946.28;5036368;28;20045;-73
2022/03/09 06:52:29;;;;;;;20.33;6.47;;;;;;;-3.45;36.65;99952.34;5024955;28;20410;-73
2022/03/09 06:54:55;;;;;;;17.53;6.73;;;;;;;-3.43;36.31;99938.81;5028399;28;20110;-72
2022/03/09 06:57:22;;;;;;;23.63;6.60;;;;;;;-3.33;36.33;99952.75;5028334;28;20054;-70
2022/03/09 06:59:49;;;;;;;20.63;7.25;;;;;;;-3.21;36.42;99955.81;5032330;28;20043;-69
2022/03/09 07:02:15;;;;;;;38.17;7.37;;;;;;;-3.05;36.22;99967.38;5027378;28;20057;-72
2022/03/09 07:04:41;;;;;;;26.07;8.20;;;;;;;-2.87;36.39;99953.69;5033436;28;20049;-73
2022/03/09 07:07:07;;;;;;;27.60;8.00;;;;;;;-2.63;35.92;99963.31;5029281;28;20055;-74
2022/03/09 07:09:33;;;;;;;25.17;7.40;;;;;;;-2.51;35.88;99952.97;5031518;28;20056;-72
2022/03/09 07:12:00;;;;;;;33.07;7.50;;;;;;;-2.34;35.91;99960.78;5027553;28;20046;-70
2022/03/09 07:14:26;;;;;;;19.47;6.93;;;;;;;-2.22;35.83;99956.63;5029846;28;20047;-74
2022/03/09 07:16:53;;;;;;;16.83;5.88;;;;;;;-2.01;35.60;99961.22;5030925;28;20057;-72
2022/03/09 07:19:19;;;;;;;17.30;6.20;;;;;;;-2.01;35.33;99961.22;5027309;28;20049;-75
2022/03/09 07:21:45;;;;;;;17.90;6.67;;;;;;;-1.99;35.44;99966.41;5031474;28;20045;-73
2022/03/09 07:24:11;;;;;;;19.00;6.43;;;;;;;-2.06;35.34;99966.31;5031257;28;20069;-72
2022/03/09 07:26:40;;;;;;;17.17;6.70;;;;;;;-1.84;35.47;99958.31;5028163;28;20087;-72
2022/03/09 07:29:08;;;;;;;17.77;6.37;;;;;;;-1.71;34.99;99963.00;5041187;28;20421;-73
2022/03/09 07:31:36;;;;;;;23.60;7.27;;;;;;;-1.68;35.02;99967.97;5011602;28;20054;-73
2022/03/09 07:34:01;;;;;;;20.45;7.10;;;;;;;-1.60;34.79;99959.81;5035498;28;20047;-71
2022/03/09 07:36:28;;;;;;;21.90;7.83;;;;;;;-1.58;34.58;99967.66;5033123;28;20049;-71
2022/03/09 07:38:54;;;;;;;25.83;6.63;;;;;;;-1.38;34.17;99973.25;5033759;28;20436;-72
2022/03/09 07:41:20;;;;;;;20.53;7.10;;;;;;;-1.29;34.27;99974.75;5003096;28;20045;-71
2022/03/09 07:43:46;;;;;;;17.17;6.47;;;;;;;-1.17;33.93;99966.19;5017784;28;20067;-74
2022/03/09 07:46:12;;;;;;;21.97;7.07;;;;;;;-1.02;33.80;99968.78;5030254;28;20060;-74
2022/03/09 07:48:39;;;;;;;15.90;6.13;;;;;;;-0.89;33.64;99968.88;5026314;28;20132;-72
2022/03/09 07:51:05;;;;;;;15.13;6.10;;;;;;;-0.70;33.42;99974.63;5032290;28;20210;-73
2022/03/09 07:53:31;;;;;;;14.40;5.20;;;;;;;-0.66;33.47;99969.66;5024946;28;20533;-74
2022/03/09 07:55:58;;;;;;;18.27;5.63;;;;;;;-0.52;33.18;99975.97;5034794;28;20462;-72
2022/03/09 07:58:24;;;;;;;12.93;5.43;;;;;;;-0.50;32.81;99963.16;5031349;28;20107;-73
2022/03/09 08:00:50;;;;;;;11.37;4.87;;;;;;;-0.35;32.63;99971.06;5038169;28;20061;-71
2022/03/09 08:03:17;;;;;;;12.17;5.10;;;;;;;-0.21;32.14;99972.81;5012713;28;20044;-71
2022/03/09 08:05:44;;;;;;;12.17;4.77;;;;;;;-0.19;32.36;99973.44;5028733;28;20050;-70
2022/03/09 08:08:10;;;;;;;12.63;4.95;;;;;;;-0.20;32.11;99974.47;5021052;28;20115;-71
2022/03/09 08:10:37;;;;;;;12.80;4.63;;;;;;;-0.07;32.13;99984.47;5015222;28;20045;-71
2022/03/09 08:13:03;;;;;;;17.33;5.67;;;;;;;0.10;31.97;99984.13;5028119;28;20064;-69
2022/03/09 08:15:29;;;;;;;19.30;5.30;;;;;;;0.27;31.81;99974.66;5041227;28;20053;-72
2022/03/09 08:17:56;;;;;;;18.60;5.17;;;;;;;0.42;31.82;99984.41;5023761;28;20123;-73
2022/03/09 08:20:21;;;;;;;14.77;4.93;;;;;;;0.54;31.62;99980.06;5034015;28;20521;-71
2022/03/09 08:22:48;;;;;;;14.50;5.20;;;;;;;0.69;31.22;99985.28;5032016;28;20049;-71
2022/03/09 08:25:14;;;;;;;12.90;4.60;;;;;;;0.76;31.37;99977.22;5039174;28;20052;-72
2022/03/09 08:27:41;;;;;;;15.37;5.00;;;;;;;0.87;31.06;99978.47;5023547;28;20074;-73
2022/03/09 08:30:09;;;;;;;12.90;4.60;;;;;;;0.98;30.92;99979.72;5044145;28;20132;-73
2022/03/09 08:32:35;;;;;;;13.05;4.72;;;;;;;1.10;30.49;99979.94;5026328;28;20421;-71
2022/03/09 08:35:03;;;;;;;15.40;4.65;;;;;;;1.05;30.64;99982.41;5044630;28;20108;-70
2022/03/09 08:37:30;;;;;;;13.05;4.38;;;;;;;1.24;30.19;99988.84;5038110;28;20088;-72
2022/03/09 08:39:58;;;;;;;20.83;4.80;;;;;;;1.29;30.07;99980.94;5042588;28;20573;-71
2022/03/09 08:42:24;;;;;;;17.80;4.47;;;;;;;1.39;29.75;99984.03;5027281;28;20413;-72
2022/03/09 08:44:51;;;;;;;12.27;4.50;;;;;;;1.58;29.57;99976.13;5037219;28;20045;-71
2022/03/09 08:47:17;;;;;;;11.45;4.10;;;;;;;1.68;29.24;99984.63;5051230;28;20053;-72
2022/03/09 08:49:43;;;;;;;11.43;4.05;;;;;;;1.64;28.82;99988.78;5018694;28;20057;-72
2022/03/09 08:52:11;;;;;;;14.32;4.32;;;;;;;1.78;29.43;99989.56;5014229;28;20037;-72
2022/03/09 08:54:37;;;;;;;12.13;4.85;;;;;;;1.82;29.20;99989.97;5032634;28;20057;-73
2022/03/09 08:57:05;;;;;;;11.63;4.30;;;;;;;1.91;29.03;99985.16;5030016;28;20477;-71
2022/03/09 08:59:32;;;;;;;12.82;4.03;;;;;;;2.00;28.66;99988.47;5021024;28;20099;-73
2022/03/09 09:01:59;;;;;;;12.27;3.85;;;;;;;2.17;28.36;99988.78;5023991;28;20049;-71
2022/03/09 09:04:25;;;;;;;19.35;4.43;;;;;;;2.32;28.14;99993.91;5022308;28;20279;-74
2022/03/09 09:06:52;;;;;;;20.27;4.60;;;;;;;2.33;27.75;99995.56;5037970;28;20057;-71
2022/03/09 09:09:20;;;;;;;14.88;3.95;;;;;;;2.50;27.68;99999.41;5031699;28;20077;-71
2022/03/09 09:11:47;;;;;;;12.55;4.70;;;;;;;2.55;27.45;99991.50;5042251;28;20057;-72
2022/03/09 09:14:13;;;;;;;13.35;4.63;;;;;;;2.74;27.42;99998.88;5031562;28;20069;-72
2022/03/09 09:16:43;;;;;;;12.80;4.60;;;;;;;2.95;27.30;100003.88;5031516;28;20053;-69
2022/03/09 09:19:09;;;;;;;12.63;4.25;;;;;;;3.12;27.23;100009.59;5027154;28;20045;-68
2022/03/09 09:21:36;;;;;;;12.23;4.47;;;;;;;3.11;26.95;99999.84;5040785;28;20124;-69
2022/03/09 09:24:02;;;;;;;13.70;4.55;;;;;;;3.42;26.76;100018.88;5035627;28;20069;-71
2022/03/09 09:26:29;;;;;;;15.73;4.53;;;;;;;3.46;26.31;100016.59;5015607;28;20052;-76
2022/03/09 09:28:55;;;;;;;16.70;5.00;;;;;;;3.53;26.23;100012.75;5035569;28;20055;-77
2022/03/09 09:31:23;;;;;;;11.95;4.20;;;;;;;3.67;26.03;100015.34;5025896;28;20065;-77
2022/03/09 09:33:49;;;;;;;14.57;4.87;;;;;;;3.79;25.99;100021.66;5011180;28;20063;-77
2022/03/09 09:36:15;;;;;;;23.00;5.00;;;;;;;3.92;25.90;100015.28;5013772;28;20331;-77
2022/03/09 09:38:42;;;;;;;12.23;4.10;;;;;;;4.00;25.68;100011.44;5031316;28;20045;-76
2022/03/09 09:41:13;;;;;;;14.45;3.88;;;;;;;4.13;24.96;100017.75;5030079;28;20053;-76
2022/03/09 09:43:41;;;;;;;11.77;3.70;;;;;;;4.28;24.97;100017.34;5031093;28;20236;-76
2022/03/09 09:46:07;;;;;;;10.73;3.80;;;;;;;4.44;25.06;100018.63;5031542;28;20055;-76
2022/03/09 09:48:34;;;;;;;11.57;4.32;;;;;;;4.58;24.55;100013.84;5029906;28;20080;-76
2022/03/09 09:51:00;;;;;;;13.30;4.60;;;;;;;4.64;24.56;100018.34;5029480;28;20052;-76
2022/03/09 09:53:30;;;;;;;11.50;4.25;;;;;;;4.87;24.29;100016.75;5030606;28;20307;-77
2022/03/09 09:55:58;;;;;;;11.70;4.07;;;;;;;5.07;24.24;100016.47;5004200;28;20517;-78
2022/03/09 09:58:25;;;;;;;10.98;3.88;;;;;;;5.06;23.86;100010.19;5010289;28;20041;-77
2022/03/09 10:00:51;;;;;;;11.73;4.10;;;;;;;5.19;23.58;100021.88;5029858;28;20049;-78
2022/03/09 10:03:17;;;;;;;11.35;4.10;;;;;;;5.30;23.21;100012.13;5030175;28;20424;-77
2022/03/09 10:05:44;;;;;;;8.82;3.50;;;;;;;5.44;23.22;100023.56;5031282;28;20429;-77
2022/03/09 10:08:16;;;;;;;10.05;3.63;;;;;;;5.60;22.75;100024.75;5030107;28;20417;-76
2022/03/09 10:10:52;;;;;;;10.38;4.00;;;;;;;5.74;22.69;100020.72;5030209;28;20425;-78
2022/03/09 10:13:20;;;;;;;11.10;4.05;;;;;;;5.95;22.42;100010.34;5022040;28;20045;-77
2022/03/09 10:15:49;;;;;;;11.65;4.05;;;;;;;6.01;22.49;100020.25;5020750;28;20060;-77
2022/03/09 10:18:17;;;;;;;10.65;4.25;;;;;;;6.15;22.34;100028.94;5049018;28;20461;-77
2022/03/09 10:20:43;;;;;;;;;;;;;;;6.20;21.83;100022.81;5033482;28;20087;-77
2022/03/09 10:23:10;;;;;;;11.70;4.03;;;;;;;6.39;21.78;100037.84;5032962;28;19979;-77
2022/03/09 10:25:38;;;;;;;10.80;4.05;;;;;;;6.36;21.97;100027.47;5023693;28;20050;-77
2022/03/09 10:28:08;;;;;;;10.20;3.67;;;;;;;6.44;21.82;100020.03;5024248;28;20095;-76
2022/03/09 10:30:41;;;;;;;15.38;3.80;;;;;;;6.65;21.52;100034.84;5029022;28;20052;-76
2022/03/09 10:33:11;;;;;;;10.02;4.00;;;;;;;6.64;21.59;100034.00;5029887;28;20052;-75
2022/03/09 10:35:44;;;;;;;20.85;4.18;;;;;;;6.89;21.44;100032.00;5027770;28;20042;-79
2022/03/09 10:38:23;;;;;;;8.77;3.60;;;;;;;6.93;21.29;100042.13;4997165;28;20045;-80
2022/03/09 10:40:51;;;;;;;11.88;3.90;;;;;;;6.96;21.16;100040.84;5013138;28;20073;-79
2022/03/09 10:43:18;;;;;;;;;;;;;;;7.15;21.42;100033.25;5019910;28;20347;-82
2022/03/09 10:46:05;;;;;;;12.55;4.03;;;;;;;7.34;21.49;100025.69;5013632;28;19977;-80
2022/03/09 10:49:00;;;;;;;13.18;4.10;;;;;;;7.48;21.07;100037.03;5025896;28;20431;-80
2022/03/09 10:51:33;;;;;;;29.90;4.88;;;;;;;7.55;21.34;100034.16;5006079;28;20418;-81
2022/03/09 10:54:01;;;;;;;12.50;4.25;;;;;;;7.57;21.18;100042.91;5028701;28;20123;-78
2022/03/09 10:56:28;;;;;;;13.57;3.95;;;;;;;7.65;21.26;100037.03;5014033;28;20053;-78
2022/03/09 10:58:54;;;;;;;11.65;4.05;;;;;;;7.86;21.18;100031.88;5044420;28;20056;-79
2022/03/09 11:01:23;;;;;;;12.63;4.50;;;;;;;7.98;21.24;100017.34;5014699;28;20045;-80
2022/03/09 11:03:50;;;;;;;14.45;4.97;;;;;;;8.02;21.02;100040.25;4998132;28;20525;-79
2022/03/09 11:06:17;;;;;;;15.10;4.80;;;;;;;8.07;20.97;100045.78;5031864;28;20057;-79
2022/03/09 11:08:44;;;;;;;12.35;4.63;;;;;;;8.16;21.07;100046.16;5030007;28;20053;-79
2022/03/09 11:11:12;;;;;;;10.90;4.30;;;;;;;8.49;21.04;100037.03;5012805;28;20148;-79
2022/03/09 11:13:39;;;;;;;12.40;4.68;;;;;;;8.52;20.37;100052.09;5027716;28;20440;-79
2022/03/09 11:16:07;;;;;;;11.43;4.72;;;;;;;8.48;20.73;100040.03;5027686;28;20086;-78
2022/03/09 11:18:34;;;;;;;10.77;4.07;;;;;;;8.61;20.46;100050.56;5012291;28;20140;-79
2022/03/09 11:21:02;;;;;;;13.00;4.53;;;;;;;8.79;20.22;100037.66;5012400;28;20041;-79
2022/03/09 11:23:31;;;;;;;11.07;4.10;;;;;;;8.91;20.40;100042.94;5030314;28;20049;-79
2022/03/09 11:26:02;;;;;;;12.63;4.28;;;;;;;8.85;19.79;100052.97;5036574;28;20523;-79
2022/03/09 11:28:31;;;;;;;14.35;4.28;;;;;;;8.85;20.01;100054.91;5033107;28;20056;-79